Time;durP1;ratioP1;P1;durP2;ratioP2;P2;SDS_P1;SDS_P2;PMS_P1;PMS_P2;Temp;Humidity;BMP_temperature;BMP_pressure;BME280_temperature;BME280_humidity;BME280_pressure;Samples;Min_cycle;Max_cycle;Signal;HPM_P1;HPM_P2
2022/07/26 00:01:08;;;;;;;2.92;2.65;;;26.90;96.00;;;;;;5108943;28;20031;-77
2022/07/26 00:03:34;;;;;;;3.20;2.97;;;27.00;96.30;;;;;;5095039;28;20048;-77
2022/07/26 00:05:59;;;;;;;2.70;2.60;;;27.10;96.70;;;;;;5094120;28;20103;-77
2022/07/26 00:08:25;;;;;;;4.15;3.05;;;27.00;97.30;;;;;;5094036;28;20027;-76
2022/07/26 00:10:51;;;;;;;2.83;2.63;;;27.00;96.50;;;;;;5094843;28;20048;-77
2022/07/26 00:13:19;;;;;;;3.42;3.22;;;27.00;97.50;;;;;;5094925;28;20034;-77
2022/07/26 00:15:46;;;;;;;3.63;3.42;;;27.00;97.60;;;;;;5093717;28;20541;-76
2022/07/26 00:18:13;;;;;;;4.68;3.40;;;27.00;97.80;;;;;;5076494;28;20031;-76
2022/07/26 00:20:40;;;;;;;3.47;3.20;;;27.00;98.10;;;;;;5094569;28;20382;-77
2022/07/26 00:23:06;;;;;;;3.63;3.42;;;27.00;98.40;;;;;;5094370;28;20027;-76
2022/07/26 00:25:32;;;;;;;3.95;3.75;;;26.90;99.20;;;;;;5094321;28;20016;-76
2022/07/26 00:27:58;;;;;;;3.65;3.42;;;26.80;99.30;;;;;;5082273;28;20473;-77
2022/07/26 00:30:24;;;;;;;6.20;3.58;;;26.60;99.80;;;;;;5114930;28;20024;-76
2022/07/26 00:32:51;;;;;;;3.40;3.20;;;26.50;99.70;;;;;;5114764;28;20173;-76
2022/07/26 00:35:18;;;;;;;3.17;2.90;;;26.50;99.10;;;;;;5114747;28;20024;-76
2022/07/26 00:37:43;;;;;;;4.07;2.67;;;26.50;98.60;;;;;;5114776;28;20028;-77
2022/07/26 00:40:10;;;;;;;2.70;2.50;;;26.50;97.70;;;;;;5114688;28;20031;-76
2022/07/26 00:42:36;;;;;;;3.33;2.95;;;26.40;97.10;;;;;;5095547;28;20048;-76
2022/07/26 00:45:03;;;;;;;3.22;2.92;;;26.50;96.70;;;;;;5111855;28;20020;-76
2022/07/26 00:47:29;;;;;;;2.95;2.75;;;26.50;96.70;;;;;;5113953;28;20038;-77
2022/07/26 00:49:55;;;;;;;4.43;2.80;;;26.40;96.50;;;;;;5114301;28;20028;-77
2022/07/26 00:52:20;;;;;;;2.50;2.33;;;26.30;96.10;;;;;;5114549;28;20062;-76
2022/07/26 00:54:46;;;;;;;3.05;2.33;;;26.20;96.20;;;;;;5096182;28;20111;-77
2022/07/26 00:57:13;;;;;;;3.00;2.80;;;26.20;96.80;;;;;;5114233;28;20031;-76
2022/07/26 00:59:40;;;;;;;3.42;3.00;;;26.20;96.60;;;;;;5114153;28;20102;-76
2022/07/26 01:02:07;;;;;;;2.20;2.10;;;26.00;96.60;;;;;;5112934;28;20481;-76
2022/07/26 01:04:52;;;;;;;3.83;3.38;;;26.10;96.90;;;;;;5114100;28;20489;-76
2022/07/26 01:07:18;;;;;;;2.88;2.67;;;26.00;96.70;;;;;;5094964;28;20477;-76
2022/07/26 01:09:44;;;;;;;2.92;2.63;;;26.00;97.10;;;;;;5114129;28;20374;-76
2022/07/26 01:12:10;;;;;;;3.63;2.30;;;25.90;97.10;;;;;;5113514;28;20027;-77
2022/07/26 01:14:36;;;;;;;3.20;3.00;;;25.90;97.60;;;;;;5113813;28;20143;-77
2022/07/26 01:17:02;;;;;;;3.30;3.00;;;25.80;97.60;;;;;;5113362;28;20103;-76
2022/07/26 01:19:27;;;;;;;2.88;2.78;;;25.70;97.80;;;;;;5095443;28;20020;-77
2022/07/26 01:21:53;;;;;;;3.70;3.40;;;25.70;97.90;;;;;;5113566;28;20504;-76
2022/07/26 01:24:19;;;;;;;2.65;2.45;;;25.70;98.20;;;;;;5095101;28;20066;-75
2022/07/26 01:26:45;;;;;;;3.40;3.03;;;25.70;98.10;;;;;;5095103;28;20023;-76
2022/07/26 01:29:10;;;;;;;3.10;2.85;;;25.60;98.20;;;;;;5112901;28;20034;-75
2022/07/26 01:31:36;;;;;;;3.25;3.05;;;25.60;98.30;;;;;;5113683;28;20103;-76
2022/07/26 01:34:02;;;;;;;3.40;3.10;;;25.60;98.40;;;;;;5094737;28;20361;-75
2022/07/26 01:36:28;;;;;;;4.78;3.00;;;25.50;98.20;;;;;;5113484;28;20043;-76
2022/07/26 01:38:54;;;;;;;2.55;2.45;;;25.60;98.10;;;;;;5112918;28;20106;-76
2022/07/26 01:41:20;;;;;;;5.22;3.00;;;25.70;97.80;;;;;;5112827;28;20024;-76
2022/07/26 01:43:45;;;;;;;3.80;3.15;;;25.70;97.50;;;;;;5112556;28;20035;-75
2022/07/26 01:46:12;;;;;;;3.35;3.10;;;25.70;97.50;;;;;;5113387;28;20085;-76
2022/07/26 01:48:39;;;;;;;3.38;3.08;;;25.70;97.20;;;;;;5112621;28;20032;-75
2022/07/26 01:51:04;;;;;;;3.42;3.13;;;25.80;97.20;;;;;;5113252;28;20015;-76
2022/07/26 01:53:30;;;;;;;3.00;2.80;;;25.90;97.00;;;;;;5113171;28;20493;-76
2022/07/26 01:55:56;;;;;;;3.88;2.58;;;25.80;97.00;;;;;;5112768;28;20496;-75
2022/07/26 01:58:22;;;;;;;3.10;2.90;;;25.80;96.80;;;;;;5113026;28;20024;-76
2022/07/26 02:00:48;;;;;;;3.50;2.92;;;25.80;96.80;;;;;;5109029;28;20421;-76
2022/07/26 02:03:14;;;;;;;3.33;3.03;;;25.80;96.70;;;;;;5112424;28;20027;-75
2022/07/26 02:05:40;;;;;;;3.10;2.90;;;25.80;96.70;;;;;;5112863;28;20107;-76
2022/07/26 02:08:05;;;;;;;3.10;2.90;;;25.80;96.80;;;;;;5112387;28;20447;-75
2022/07/26 02:13:16;;;;;;;3.35;2.95;;;25.80;96.90;;;;;;5112407;28;20034;-75
2022/07/26 02:15:42;;;;;;;2.95;2.75;;;25.70;96.90;;;;;;5112837;28;20031;-76
2022/07/26 02:18:08;;;;;;;3.53;3.10;;;25.70;97.10;;;;;;5112642;28;20024;-75
2022/07/26 02:20:34;;;;;;;4.35;3.20;;;25.70;96.80;;;;;;5112566;28;20047;-75
2022/07/26 02:23:00;;;;;;;2.92;2.72;;;25.70;96.70;;;;;;5112772;28;20485;-75
2022/07/26 02:25:26;;;;;;;3.42;2.85;;;25.70;96.70;;;;;;5112188;28;20054;-76
2022/07/26 02:27:52;;;;;;;3.70;3.38;;;25.70;96.80;;;;;;5112382;28;20051;-76
2022/07/26 02:30:17;;;;;;;4.25;2.90;;;25.70;97.10;;;;;;5094205;28;20392;-76
2022/07/26 02:32:43;;;;;;;3.65;3.35;;;25.70;96.80;;;;;;5112392;28;20435;-75
2022/07/26 02:35:09;;;;;;;3.13;2.92;;;25.70;97.10;;;;;;5094058;28;20392;-75
2022/07/26 02:37:35;;;;;;;3.00;2.80;;;25.60;97.10;;;;;;5112396;28;20024;-75
2022/07/26 02:40:01;;;;;;;3.50;3.17;;;25.60;97.10;;;;;;5093813;28;20123;-75
2022/07/26 02:42:27;;;;;;;4.20;3.30;;;25.60;96.90;;;;;;5090637;28;20443;-75
2022/07/26 02:44:53;;;;;;;3.20;3.00;;;25.70;97.00;;;;;;5112399;28;20027;-74
2022/07/26 02:47:19;;;;;;;3.22;3.03;;;25.70;97.20;;;;;;5112076;28;20031;-75
2022/07/26 02:49:45;;;;;;;3.35;3.15;;;25.70;96.80;;;;;;5112144;28;20031;-75
2022/07/26 02:52:11;;;;;;;3.17;2.97;;;25.70;96.90;;;;;;5112209;28;20020;-74
2022/07/26 02:54:36;;;;;;;3.17;2.88;;;25.70;97.00;;;;;;5111332;28;20190;-75
2022/07/26 02:57:02;;;;;;;3.50;3.20;;;25.70;96.80;;;;;;5111993;28;20012;-75
2022/07/26 02:59:28;;;;;;;3.45;2.60;;;25.60;96.80;;;;;;5111820;28;20028;-75
2022/07/26 03:01:54;;;;;;;3.65;2.90;;;25.60;97.00;;;;;;5111917;28;20102;-75
2022/07/26 03:04:21;;;;;;;3.28;2.97;;;25.70;97.00;;;;;;5111636;28;20494;-76
2022/07/26 03:06:46;;;;;;;3.28;3.08;;;25.70;96.70;;;;;;5111457;28;20028;-76
2022/07/26 03:09:12;;;;;;;4.00;3.53;;;25.60;96.60;;;;;;5111791;28;20031;-75
2022/07/26 03:11:38;;;;;;;4.05;3.10;;;25.70;96.50;;;;;;5111820;28;20019;-75
2022/07/26 03:14:04;;;;;;;3.70;3.38;;;25.70;96.20;;;;;;5111905;28;20024;-75
2022/07/26 03:16:30;;;;;;;3.20;3.00;;;25.70;96.20;;;;;;5093521;28;20107;-75
2022/07/26 03:18:56;;;;;;;3.05;2.70;;;25.70;96.10;;;;;;5111817;28;20088;-75
2022/07/26 03:21:22;;;;;;;2.88;2.67;;;25.70;96.00;;;;;;5111956;28;20107;-76
2022/07/26 03:23:47;;;;;;;4.22;2.92;;;25.70;96.00;;;;;;5111594;28;20540;-75
2022/07/26 03:26:14;;;;;;;4.07;2.90;;;25.80;95.80;;;;;;5097197;28;20412;-76
2022/07/26 03:28:41;;;;;;;3.92;2.90;;;25.80;95.60;;;;;;5097832;28;20031;-75
2022/07/26 03:31:07;;;;;;;3.00;2.80;;;25.80;95.60;;;;;;5096952;28;20167;-76
2022/07/26 03:33:33;;;;;;;3.65;3.00;;;25.70;95.80;;;;;;5115915;28;20488;-75
2022/07/26 03:35:59;;;;;;;2.63;2.53;;;25.70;95.70;;;;;;5115123;28;20023;-75
2022/07/26 03:38:24;;;;;;;2.70;2.60;;;25.70;95.60;;;;;;5115657;28;20027;-75
2022/07/26 03:40:50;;;;;;;3.80;3.13;;;25.70;95.60;;;;;;5115588;28;20507;-75
2022/07/26 03:43:18;;;;;;;3.25;2.95;;;25.70;95.50;;;;;;5115689;28;20050;-75
2022/07/26 03:45:44;;;;;;;3.22;3.03;;;25.70;95.60;;;;;;5114800;28;20527;-75
2022/07/26 03:48:09;;;;;;;2.75;2.55;;;25.70;95.70;;;;;;5115446;28;20031;-75
2022/07/26 03:50:35;;;;;;;3.15;2.85;;;25.80;95.40;;;;;;5115489;28;20043;-75
2022/07/26 03:53:01;;;;;;;4.38;3.20;;;25.80;95.50;;;;;;5115360;28;20028;-75
2022/07/26 03:58:11;;;;;;;3.88;2.65;;;25.90;95.00;;;;;;5115670;28;20055;-75
2022/07/26 04:00:37;;;;;;;2.33;2.22;;;26.00;95.30;;;;;;5111951;28;20023;-75
2022/07/26 04:03:03;;;;;;;3.05;2.83;;;26.00;94.70;;;;;;5096959;28;20216;-75
2022/07/26 04:05:28;;;;;;;3.08;2.83;;;26.00;94.70;;;;;;5096875;28;20023;-75
2022/07/26 04:07:54;;;;;;;5.22;3.00;;;26.00;94.70;;;;;;5115193;28;20484;-75
2022/07/26 04:10:22;;;;;;;2.85;2.65;;;26.00;94.30;;;;;;5115117;28;20027;-75
2022/07/26 04:12:48;;;;;;;2.78;2.55;;;26.10;94.20;;;;;;5114651;28;20190;-75
2022/07/26 04:15:15;;;;;;;3.05;2.85;;;26.10;94.20;;;;;;5096329;28;20023;-75
2022/07/26 04:17:42;;;;;;;4.28;3.20;;;26.10;93.90;;;;;;5114780;28;20259;-75
2022/07/26 04:20:10;;;;;;;3.33;3.05;;;26.20;93.70;;;;;;5114822;28;20401;-75
2022/07/26 04:22:37;;;;;;;3.88;3.13;;;26.20;93.50;;;;;;5114995;28;20106;-75
2022/07/26 04:25:04;;;;;;;5.68;2.88;;;26.20;93.60;;;;;;5114842;28;20047;-75
2022/07/26 04:27:30;;;;;;;4.18;3.28;;;26.20;93.40;;;;;;5096361;28;20076;-75
2022/07/26 04:29:56;;;;;;;3.03;2.72;;;26.20;93.30;;;;;;5114367;28;20500;-75
2022/07/26 04:32:22;;;;;;;3.97;2.60;;;26.20;93.20;;;;;;5114874;28;20023;-74
2022/07/26 04:34:47;;;;;;;4.03;2.55;;;26.20;93.00;;;;;;5114371;28;20208;-75
2022/07/26 04:37:13;;;;;;;2.72;2.53;;;26.30;93.20;;;;;;5114485;28;20020;-75
2022/07/26 04:39:39;;;;;;;3.40;2.92;;;26.30;93.00;;;;;;5114217;28;20055;-75
2022/07/26 04:42:05;;;;;;;4.22;2.58;;;26.40;92.90;;;;;;5114472;28;20027;-75
2022/07/26 04:44:30;;;;;;;4.57;3.60;;;26.40;93.00;;;;;;5114764;28;20027;-75
2022/07/26 04:46:56;;;;;;;3.00;2.70;;;26.40;93.00;;;;;;5088850;28;20552;-75
2022/07/26 04:49:22;;;;;;;3.75;2.60;;;26.40;92.80;;;;;;5084847;28;20027;-75
2022/07/26 04:51:48;;;;;;;3.63;3.17;;;26.40;92.60;;;;;;5101479;28;20012;-74
2022/07/26 04:54:19;;;;;;;3.28;2.92;;;26.40;92.60;;;;;;5104500;28;20474;-75
2022/07/26 04:56:48;;;;;;;3.50;2.67;;;26.40;92.60;;;;;;5083453;28;20042;-75
2022/07/26 04:59:14;;;;;;;5.20;2.95;;;26.50;92.60;;;;;;5102494;28;20047;-75
2022/07/26 05:01:40;;;;;;;3.03;2.72;;;26.50;92.30;;;;;;5102298;28;20020;-75
2022/07/26 05:04:09;;;;;;;3.65;2.88;;;26.60;91.80;;;;;;5101654;28;20381;-76
2022/07/26 05:06:35;;;;;;;2.88;2.55;;;26.60;91.80;;;;;;5102349;28;20098;-75
2022/07/26 05:09:00;;;;;;;2.83;2.70;;;26.60;91.50;;;;;;5102907;28;20111;-75
2022/07/26 05:11:27;;;;;;;4.57;2.90;;;26.70;91.80;;;;;;5101902;28;20480;-75
2022/07/26 05:13:52;;;;;;;3.05;2.60;;;26.70;91.60;;;;;;5099936;28;20545;-75
2022/07/26 05:16:18;;;;;;;3.50;3.00;;;26.70;91.20;;;;;;5093518;28;20118;-75
2022/07/26 05:18:44;;;;;;;4.45;3.10;;;26.70;91.10;;;;;;5093032;28;20100;-75
2022/07/26 05:21:10;;;;;;;4.40;2.90;;;26.70;91.00;;;;;;5092750;28;20024;-75
2022/07/26 05:23:35;;;;;;;3.08;2.88;;;26.80;90.90;;;;;;5093561;28;20028;-75
2022/07/26 05:26:01;;;;;;;3.70;2.63;;;26.80;90.70;;;;;;5097542;28;20129;-75
2022/07/26 05:28:27;;;;;;;3.13;2.92;;;26.90;90.60;;;;;;5113606;28;20023;-75
2022/07/26 05:30:52;;;;;;;4.00;2.70;;;26.90;90.30;;;;;;5112908;28;20048;-75
2022/07/26 05:33:18;;;;;;;4.93;2.45;;;26.90;90.30;;;;;;5113383;28;20019;-75
2022/07/26 05:35:44;;;;;;;2.55;2.25;;;26.90;90.10;;;;;;5113340;28;20046;-75
2022/07/26 05:38:10;;;;;;;3.97;3.13;;;27.00;90.10;;;;;;5094561;28;20028;-75
2022/07/26 05:40:35;;;;;;;5.35;3.45;;;27.00;90.00;;;;;;5112453;28;20051;-75
2022/07/26 05:43:02;;;;;;;2.35;2.25;;;27.10;89.90;;;;;;5111302;28;20161;-75
2022/07/26 05:45:28;;;;;;;3.00;2.42;;;27.10;89.30;;;;;;5110238;28;20020;-75
2022/07/26 05:47:54;;;;;;;2.50;2.30;;;27.10;88.60;;;;;;5110495;28;20016;-75
2022/07/26 05:50:20;;;;;;;2.65;2.45;;;27.20;88.60;;;;;;5111332;28;20023;-74
2022/07/26 05:52:46;;;;;;;2.53;1.95;;;27.30;87.50;;;;;;5110675;28;20056;-75
2022/07/26 05:55:12;;;;;;;2.72;2.53;;;27.30;86.70;;;;;;5092166;28;20393;-75
2022/07/26 05:57:40;;;;;;;7.88;2.85;;;27.40;87.70;;;;;;5109828;28;20022;-74
2022/07/26 06:00:08;;;;;;;2.78;2.58;;;27.40;86.10;;;;;;5113008;28;20015;-74
2022/07/26 06:02:33;;;;;;;3.28;2.40;;;27.50;86.10;;;;;;5094743;28;20114;-75
2022/07/26 06:04:59;;;;;;;2.53;2.33;;;27.50;86.00;;;;;;5094335;28;20581;-75
2022/07/26 06:07:25;;;;;;;4.88;3.10;;;27.60;85.60;;;;;;5112809;28;20059;-75
2022/07/26 06:09:50;;;;;;;3.40;2.60;;;27.60;85.60;;;;;;5094401;28;20047;-74
2022/07/26 06:12:16;;;;;;;2.42;2.33;;;27.70;86.10;;;;;;5112726;28;20042;-75
2022/07/26 06:14:42;;;;;;;2.80;2.28;;;27.70;83.80;;;;;;5112830;28;20027;-75
2022/07/26 06:17:08;;;;;;;3.17;2.58;;;27.80;84.50;;;;;;5112400;28;20178;-75
2022/07/26 06:19:33;;;;;;;3.08;2.83;;;27.90;83.30;;;;;;5112783;28;20089;-75
2022/07/26 06:21:59;;;;;;;6.15;2.72;;;27.90;85.10;;;;;;5112561;28;20062;-74
2022/07/26 06:24:25;;;;;;;3.10;2.80;;;27.90;86.30;;;;;;5112572;28;20161;-74
2022/07/26 06:26:52;;;;;;;4.68;2.65;;;28.00;89.50;;;;;;5112180;28;20027;-75
2022/07/26 06:29:18;;;;;;;3.13;2.92;;;27.90;90.50;;;;;;5112116;28;20511;-74
2022/07/26 06:31:44;;;;;;;3.30;3.03;;;27.90;91.20;;;;;;5112382;28;20393;-74
2022/07/26 06:34:09;;;;;;;4.72;4.28;;;28.00;91.70;;;;;;5112433;28;20016;-75
2022/07/26 06:36:35;;;;;;;5.75;3.58;;;28.00;91.70;;;;;;5112291;28;20031;-75
2022/07/26 06:39:01;;;;;;;4.15;3.25;;;28.10;92.80;;;;;;5093186;28;20024;-75
2022/07/26 06:41:26;;;;;;;3.95;3.60;;;28.10;92.40;;;;;;5112437;28;20396;-75
2022/07/26 06:43:52;;;;;;;4.72;3.63;;;28.10;92.80;;;;;;5111778;28;20051;-74
2022/07/26 06:46:19;;;;;;;4.60;4.10;;;28.20;93.00;;;;;;5112125;28;20106;-75
2022/07/26 06:48:45;;;;;;;6.03;3.58;;;28.20;93.00;;;;;;5111840;28;20028;-75
2022/07/26 06:51:11;;;;;;;4.78;3.35;;;28.20;93.40;;;;;;5090617;28;20484;-75
2022/07/26 06:53:37;;;;;;;3.72;3.30;;;28.30;93.90;;;;;;5112112;28;20035;-75
2022/07/26 06:56:03;;;;;;;6.72;3.83;;;28.30;94.00;;;;;;5112060;28;20524;-75
2022/07/26 06:58:29;;;;;;;5.55;3.58;;;28.40;93.40;;;;;;5110187;28;20023;-75
2022/07/26 07:00:55;;;;;;;4.13;3.72;;;28.40;93.50;;;;;;5093347;28;20165;-74
2022/07/26 07:03:20;;;;;;;7.53;4.32;;;28.40;93.60;;;;;;5112155;28;20023;-75
2022/07/26 07:05:46;;;;;;;6.90;3.78;;;28.40;93.10;;;;;;5111837;28;20456;-75
2022/07/26 07:08:13;;;;;;;4.20;3.90;;;28.50;93.30;;;;;;5112037;28;20396;-74
2022/07/26 07:10:39;;;;;;;5.00;3.67;;;28.50;92.60;;;;;;5112118;28;20028;-75
2022/07/26 07:13:04;;;;;;;4.28;3.85;;;28.50;92.40;;;;;;5110416;28;20066;-74
2022/07/26 07:15:30;;;;;;;5.40;3.40;;;28.50;92.10;;;;;;5111447;28;20133;-75
2022/07/26 07:17:56;;;;;;;3.97;3.58;;;28.50;91.80;;;;;;5111931;28;20054;-74
2022/07/26 07:20:22;;;;;;;6.22;4.10;;;28.60;91.70;;;;;;5111830;28;20047;-74
2022/07/26 07:22:47;;;;;;;4.97;3.83;;;28.60;90.90;;;;;;5111855;28;20106;-74
2022/07/26 07:25:14;;;;;;;4.40;4.10;;;28.60;90.50;;;;;;5093126;28;20032;-75
2022/07/26 07:27:39;;;;;;;7.30;4.22;;;28.60;90.40;;;;;;5093342;28;20054;-74
2022/07/26 07:30:07;;;;;;;6.60;4.13;;;28.70;90.70;;;;;;5111595;28;20023;-75
2022/07/26 07:32:32;;;;;;;5.65;4.82;;;28.70;91.20;;;;;;5093384;28;20518;-74
2022/07/26 07:34:58;;;;;;;4.25;3.83;;;28.80;90.80;;;;;;5111505;28;20024;-75
2022/07/26 07:37:24;;;;;;;5.68;4.35;;;28.80;91.30;;;;;;5111657;28;20053;-74
2022/07/26 07:39:52;;;;;;;3.95;3.65;;;28.90;91.50;;;;;;5111609;28;20110;-75
2022/07/26 07:42:18;;;;;;;4.03;3.60;;;29.00;91.10;;;;;;5089712;28;20051;-75
2022/07/26 07:44:44;;;;;;;4.97;4.05;;;29.00;88.60;;;;;;5091153;28;20481;-74
2022/07/26 07:47:10;;;;;;;4.45;3.65;;;29.00;88.50;;;;;;5091041;28;20036;-75
2022/07/26 07:49:35;;;;;;;6.07;3.50;;;29.00;89.60;;;;;;5070753;28;20040;-75
2022/07/26 07:52:01;;;;;;;3.78;3.20;;;29.10;90.60;;;;;;5074800;28;20028;-75
2022/07/26 07:54:27;;;;;;;5.50;3.65;;;29.20;90.70;;;;;;5053736;28;20017;-75
2022/07/26 07:56:55;;;;;;;4.18;3.80;;;29.20;90.10;;;;;;5079800;28;20059;-75
2022/07/26 07:59:21;;;;;;;5.35;3.45;;;29.20;89.20;;;;;;5081960;28;20075;-75
2022/07/26 08:01:47;;;;;;;4.45;3.42;;;29.30;90.20;;;;;;5080685;28;20021;-75
2022/07/26 08:04:13;;;;;;;4.20;3.20;;;29.40;89.90;;;;;;5079959;28;20027;-75
2022/07/26 08:06:39;;;;;;;7.93;3.72;;;29.40;89.90;;;;;;5088939;28;20036;-75
2022/07/26 08:09:05;;;;;;;3.92;3.63;;;29.50;89.10;;;;;;5081401;28;20146;-74
2022/07/26 08:11:32;;;;;;;4.63;2.95;;;29.50;89.70;;;;;;5062184;28;20032;-75
2022/07/26 08:13:58;;;;;;;3.65;3.28;;;29.60;87.40;;;;;;5080665;28;20134;-75
2022/07/26 08:16:24;;;;;;;3.65;3.35;;;29.70;89.10;;;;;;5083303;28;20099;-75
2022/07/26 08:18:49;;;;;;;6.43;3.40;;;29.80;84.90;;;;;;5085113;28;20549;-75
2022/07/26 08:21:15;;;;;;;6.25;3.55;;;29.90;85.00;;;;;;5083404;28;20036;-75
2022/07/26 08:23:41;;;;;;;11.23;3.10;;;29.80;83.20;;;;;;5082958;28;20020;-75
2022/07/26 08:26:06;;;;;;;3.60;3.30;;;29.90;84.40;;;;;;5081057;28;20478;-75
2022/07/26 08:28:32;;;;;;;4.10;3.05;;;29.90;85.10;;;;;;5066109;28;20019;-75
2022/07/26 08:30:58;;;;;;;7.68;3.33;;;30.10;84.00;;;;;;5085150;28;20473;-75
2022/07/26 08:33:24;;;;;;;3.40;3.13;;;30.20;81.60;;;;;;5081406;28;20028;-75
2022/07/26 08:35:50;;;;;;;4.40;3.45;;;30.20;79.40;;;;;;5083707;28;20020;-75
2022/07/26 08:38:15;;;;;;;4.55;2.85;;;30.20;81.50;;;;;;5081624;28;20028;-75
2022/07/26 08:40:41;;;;;;;6.57;2.80;;;30.30;79.60;;;;;;5083944;28;20028;-75
2022/07/26 08:43:07;;;;;;;6.97;3.20;;;30.30;78.50;;;;;;5083305;28;20111;-75
2022/07/26 08:45:33;;;;;;;9.07;3.30;;;30.40;78.60;;;;;;5084268;28;20020;-75
2022/07/26 08:48:00;;;;;;;3.92;3.00;;;30.40;77.40;;;;;;5082520;28;20021;-75
2022/07/26 08:50:27;;;;;;;3.40;3.00;;;30.50;76.20;;;;;;5069889;28;20032;-75
2022/07/26 08:52:58;;;;;;;8.20;3.50;;;30.70;76.00;;;;;;5094080;28;20162;-75
2022/07/26 08:55:24;;;;;;;4.78;3.10;;;30.70;76.50;;;;;;5085534;28;20501;-75
2022/07/26 08:57:50;;;;;;;2.55;2.35;;;30.80;76.20;;;;;;5082491;28;20024;-75
2022/07/26 09:00:24;;;;;;;3.17;2.92;;;30.70;74.70;;;;;;5078782;28;20105;-75
2022/07/26 09:02:51;;;;;;;3.63;3.00;;;30.80;72.90;;;;;;5079212;28;20027;-74
2022/07/26 09:05:19;;;;;;;3.38;3.17;;;30.80;71.50;;;;;;5066953;28;20035;-75
2022/07/26 09:07:46;;;;;;;6.38;3.35;;;30.80;69.90;;;;;;5084991;28;20031;-74
2022/07/26 09:10:15;;;;;;;4.60;3.28;;;30.90;72.10;;;;;;5093459;28;20251;-75
2022/07/26 09:12:41;;;;;;;4.15;3.05;;;31.00;72.70;;;;;;5076427;28;20020;-75
2022/07/26 09:15:18;;;;;;;4.30;3.50;;;30.90;71.10;;;;;;5085734;28;20512;-75
2022/07/26 09:17:46;;;;;;;4.65;3.15;;;31.00;72.70;;;;;;5084661;28;20397;-75
2022/07/26 09:20:19;;;;;;;5.10;2.85;;;31.20;68.40;;;;;;5077306;28;20032;-75
2022/07/26 09:23:06;;;;;;;2.90;2.70;;;31.10;69.00;;;;;;5074312;28;20353;-75
2022/07/26 09:25:35;;;;;;;6.57;2.67;;;31.10;67.70;;;;;;5064641;28;20035;-75
2022/07/26 09:28:01;;;;;;;3.08;2.72;;;31.30;67.40;;;;;;5082020;28;20028;-75
2022/07/26 09:30:29;;;;;;;3.78;2.60;;;31.40;66.00;;;;;;5057794;28;20122;-75
2022/07/26 09:33:04;;;;;;;4.40;2.90;;;31.50;66.20;;;;;;5087914;28;20020;-75
2022/07/26 09:35:39;;;;;;;4.38;2.75;;;31.60;63.90;;;;;;5082587;28;20020;-75
2022/07/26 09:38:16;;;;;;;3.88;2.67;;;31.50;64.10;;;;;;5078203;28;20047;-75
2022/07/26 09:40:42;;;;;;;10.57;3.10;;;31.60;62.90;;;;;;5087840;28;20082;-75
2022/07/26 09:43:08;;;;;;;2.95;2.70;;;31.60;64.70;;;;;;5078900;28;20040;-75
2022/07/26 09:45:35;;;;;;;3.00;2.80;;;31.70;66.70;;;;;;5082195;28;20103;-76
2022/07/26 09:48:02;;;;;;;3.30;3.05;;;31.70;65.90;;;;;;5068398;28;20039;-74
2022/07/26 09:50:30;;;;;;;2.80;2.60;;;31.70;64.20;;;;;;5075477;28;20371;-75
2022/07/26 09:53:02;;;;;;;2.72;2.53;;;31.90;64.50;;;;;;5087485;28;20446;-75
2022/07/26 09:55:29;;;;;;;2.15;2.05;;;31.90;61.90;;;;;;5081834;28;20481;-75
2022/07/26 09:57:56;;;;;;;2.55;2.35;;;31.90;61.10;;;;;;5088594;28;20467;-75
2022/07/26 10:00:24;;;;;;;4.32;2.13;;;31.90;58.90;;;;;;5091826;28;20507;-76
2022/07/26 10:02:52;;;;;;;4.10;2.25;;;31.80;62.20;;;;;;5076388;28;20074;-75
2022/07/26 10:05:18;;;;;;;2.83;2.63;;;31.80;62.50;;;;;;5083953;28;20551;-75
2022/07/26 10:07:44;;;;;;;3.17;2.85;;;32.10;61.20;;;;;;5083949;28;20100;-76
2022/07/26 10:10:17;;;;;;;2.97;2.60;;;32.00;61.60;;;;;;5076535;28;20024;-75
2022/07/26 10:12:45;;;;;;;3.00;2.72;;;32.20;61.20;;;;;;5087376;28;20153;-75
2022/07/26 10:15:43;;;;;;;2.53;2.38;;;32.20;58.00;;;;;;5075918;28;20043;-75
2022/07/26 10:18:30;;;;;;;2.47;2.25;;;32.20;57.10;;;;;;5087231;28;20027;-75
2022/07/26 10:20:56;;;;;;;2.88;2.67;;;32.40;57.20;;;;;;5076824;28;20522;-75
2022/07/26 10:23:41;;;;;;;2.67;2.40;;;32.40;55.90;;;;;;5083101;28;20024;-75
2022/07/26 10:26:31;;;;;;;2.60;2.40;;;32.40;56.10;;;;;;5086656;28;20427;-75
2022/07/26 10:29:15;;;;;;;3.67;2.30;;;32.40;55.40;;;;;;5080327;28;20025;-75
2022/07/26 10:31:47;;;;;;;2.30;2.10;;;32.50;54.90;;;;;;5083092;28;20050;-75
2022/07/26 10:34:36;;;;;;;4.85;2.30;;;32.50;54.40;;;;;;5073517;28;20518;-75
2022/07/26 10:37:05;;;;;;;2.33;2.10;;;32.60;55.10;;;;;;5069887;28;20032;-75
2022/07/26 10:39:31;;;;;;;3.08;2.78;;;32.80;56.10;;;;;;5081583;28;20068;-75
2022/07/26 10:42:09;;;;;;;3.67;2.72;;;32.90;56.40;;;;;;5084056;28;20030;-75
2022/07/26 10:44:40;;;;;;;4.13;3.53;;;32.90;58.10;;;;;;5075541;28;20038;-76
2022/07/26 10:47:06;;;;;;;3.25;2.38;;;33.10;56.40;;;;;;5002696;28;20033;-75
2022/07/26 10:49:55;;;;;;;4.00;2.65;;;33.10;56.60;;;;;;4999276;28;20387;-76
2022/07/26 10:52:23;;;;;;;4.15;2.58;;;33.20;54.50;;;;;;5024323;28;20027;-75
2022/07/26 10:54:58;;;;;;;4.57;2.38;;;33.20;54.90;;;;;;5004820;28;20022;-75
2022/07/26 10:57:45;;;;;;;2.78;2.58;;;33.20;55.80;;;;;;5064883;28;20034;-75
2022/07/26 11:00:14;;;;;;;4.25;3.13;;;33.40;54.20;;;;;;4993697;28;20038;-75
2022/07/26 11:02:42;;;;;;;4.40;2.63;;;33.50;54.20;;;;;;4992054;28;20034;-76
2022/07/26 11:05:12;;;;;;;4.18;3.47;;;33.60;55.90;;;;;;4991021;28;20029;-75
2022/07/26 11:07:57;;;;;;;3.58;3.03;;;33.80;58.80;;;;;;5071634;28;20449;-75
2022/07/26 11:10:26;;;;;;;4.05;3.05;;;33.90;57.20;;;;;;4991921;28;20038;-75
2022/07/26 11:13:10;;;;;;;3.42;3.15;;;33.90;56.30;;;;;;5008468;28;20083;-75
2022/07/26 11:15:38;;;;;;;4.15;3.58;;;33.90;54.80;;;;;;4998129;28;20494;-75
2022/07/26 11:18:33;;;;;;;4.07;3.15;;;33.90;57.30;;;;;;5003314;28;20360;-75
2022/07/26 11:21:16;;;;;;;3.50;3.30;;;33.90;57.10;;;;;;4994883;28;20061;-75
2022/07/26 11:23:44;;;;;;;5.13;3.28;;;34.00;57.50;;;;;;4997315;28;20023;-76
2022/07/26 11:26:20;;;;;;;3.95;3.58;;;34.10;57.90;;;;;;5087904;28;20029;-75
2022/07/26 11:29:00;;;;;;;3.80;3.47;;;34.00;56.00;;;;;;5064715;28;20026;-75
2022/07/26 11:31:35;;;;;;;3.72;3.38;;;34.10;57.00;;;;;;4998370;28;20049;-75
2022/07/26 11:34:02;;;;;;;4.22;3.58;;;34.20;56.80;;;;;;5008538;28;20479;-75
2022/07/26 11:36:39;;;;;;;6.13;3.65;;;34.20;56.20;;;;;;4992114;28;20014;-75
2022/07/26 11:39:13;;;;;;;3.30;3.10;;;34.20;57.10;;;;;;5002076;28;20029;-75
2022/07/26 11:41:41;;;;;;;4.25;3.83;;;34.30;58.20;;;;;;4999664;28;20072;-75
2022/07/26 11:44:20;;;;;;;5.40;3.80;;;34.40;57.60;;;;;;4994032;28;20034;-75
2022/07/26 11:46:47;;;;;;;4.40;4.10;;;34.30;57.90;;;;;;4995345;28;20074;-75
2022/07/26 11:49:18;;;;;;;5.38;3.85;;;34.40;58.50;;;;;;5004682;28;20412;-75
2022/07/26 11:52:00;;;;;;;4.10;3.80;;;34.60;56.40;;;;;;5003633;28;20026;-75
2022/07/26 11:54:29;;;;;;;3.97;3.65;;;34.60;56.80;;;;;;4995075;28;20452;-75
2022/07/26 11:57:00;;;;;;;3.60;3.30;;;34.70;57.10;;;;;;5052750;28;20061;-75
2022/07/26 11:59:36;;;;;;;4.07;3.70;;;34.80;56.30;;;;;;5002425;28;20395;-75
2022/07/26 12:02:04;;;;;;;3.75;3.55;;;34.90;56.20;;;;;;5005957;28;20030;-75
2022/07/26 12:04:33;;;;;;;6.32;4.13;;;35.00;56.60;;;;;;5006276;28;20037;-75
2022/07/26 12:07:02;;;;;;;4.85;4.30;;;35.10;56.90;;;;;;4997003;28;20026;-76
2022/07/26 12:09:31;;;;;;;6.22;4.30;;;35.10;55.60;;;;;;5078796;28;20051;-75
2022/07/26 12:11:57;;;;;;;4.25;3.90;;;35.20;55.40;;;;;;4998187;28;20026;-75
2022/07/26 12:14:27;;;;;;;5.18;4.00;;;35.00;55.20;;;;;;5007773;28;20030;-75
2022/07/26 12:16:53;;;;;;;6.00;4.32;;;35.00;55.50;;;;;;4996226;28;20017;-75
2022/07/26 12:19:19;;;;;;;4.18;3.83;;;35.10;55.00;;;;;;5003491;28;20035;-75
2022/07/26 12:22:06;;;;;;;4.20;3.90;;;35.10;54.80;;;;;;5003316;28;20101;-75
2022/07/26 12:24:45;;;;;;;5.63;3.92;;;35.20;56.00;;;;;;4994675;28;20392;-75
2022/07/26 12:27:14;;;;;;;6.10;4.30;;;35.30;55.20;;;;;;5003972;28;20542;-75
2022/07/26 12:29:42;;;;;;;6.45;4.40;;;35.40;54.90;;;;;;5000878;28;20478;-75
2022/07/26 12:32:11;;;;;;;5.82;4.28;;;35.20;54.80;;;;;;5011315;28;20030;-75
2022/07/26 12:34:38;;;;;;;4.63;4.25;;;35.30;54.20;;;;;;5076835;28;20020;-75
2022/07/26 12:37:14;;;;;;;3.95;3.60;;;35.30;55.30;;;;;;5079562;28;20030;-75
2022/07/26 12:39:41;;;;;;;3.95;3.67;;;35.50;54.60;;;;;;5078552;28;20121;-75
2022/07/26 12:42:21;;;;;;;6.13;4.05;;;35.50;54.00;;;;;;5011084;28;20083;-75
2022/07/26 12:44:46;;;;;;;5.28;4.50;;;35.50;53.90;;;;;;5078377;28;20029;-75
2022/07/26 12:47:12;;;;;;;3.95;3.65;;;35.60;54.20;;;;;;5011152;28;20113;-75
2022/07/26 12:49:38;;;;;;;7.22;3.28;;;35.80;54.00;;;;;;5010954;28;20087;-75
2022/07/26 12:52:04;;;;;;;4.43;3.90;;;35.70;54.60;;;;;;5011039;28;20487;-75
2022/07/26 12:54:29;;;;;;;11.48;3.90;;;36.00;55.10;;;;;;5078979;28;20026;-75